• Join FlightAware (Why Join?)
  • Login
  • US Flag 
10:12PM EDT


 

Airport Tracker/Info


-or-


 

Live Flight TrackerFlight Track Log ✈ OPT471 ✈ 03-Jul-2013 ✈ KBTR - KERV

Flight Track Log - Related Links

Times and Time Zones

All times are in EDT time to prevent confusion due to time zone crossing. See the OPT471 flight status page for this flight to view local times or setup timezone preferences in your user account.

Time Position Orientation Groundspeed Altitude Reporting Facility
EDT Latitude Longitude Course Direction KTS MPH feet Rate Location/Type
04:02PM 30.6114 -91.1417 318° Northwest 246 283 5,000  Level Houston Center
04:03PM 30.5939 -91.2189 255° West 247 284 7,500 2,520 Climbing Houston Center
04:04PM 30.5867 -91.3039 264° West 261 300 10,300 2,640 Climbing Houston Center
04:05PM 30.5772 -91.4092 264° West 272 313 13,100 2,400 Climbing Houston Center
04:06PM 30.5608 -91.5003 258° West 280 322 15,300 1,860 Climbing Houston Center
04:07PM 30.4208 -91.7712 261° West  Level FlightAware Approximate
04:07PM 30.5356 -91.5942 253° West 299 344 17,000  Level Houston Center
04:08PM 30.5103 -91.6889 253° West 305 351 18,800 1,500 Climbing Houston Center
04:09PM 30.4867 -91.7881 255° West 317 365 20,200 1,320 Climbing Houston Center
04:10PM 30.4597 -91.8875 253° West 322 371 21,600 1,440 Climbing Houston Center
04:11PM 30.4281 -92.0100 253° West 329 379 23,200 1,320 Climbing Houston Center
04:12PM 30.4006 -92.1139 253° West 335 386 24,400 1,200 Climbing Houston Center
04:14PM 30.3736 -92.2200 254° West 342 394 25,800 1,380 Climbing Houston Center
04:15PM 30.3469 -92.3219 253° West 333 383 27,300 1,440 Climbing Houston Center
04:16PM 30.3219 -92.4186 253° West 324 373 28,800 1,380 Climbing Houston Center
04:17PM 30.2969 -92.5158 253° West 317 365 30,200 1,500 Climbing Houston Center
04:18PM 30.2667 -92.6286 253° West 307 353 32,000 1,500 Climbing Houston Center
04:19PM 30.2433 -92.7186 253° West 294 338 33,300 1,080 Climbing Houston Center
04:20PM 30.2192 -92.8092 253° West 294 338 34,300 900 Climbing Houston Center
04:21PM 30.1950 -92.8994 253° West 293 337 35,200 660 Climbing Houston Center
04:22PM 30.1703 -92.9944 253° West 305 351 35,700 480 Climbing Houston Center
04:23PM 30.1444 -93.0922 253° West 315 362 36,200 480 Climbing Houston Center
04:24PM 30.1378 -93.2192 267° West 329 379 36,800 480 Climbing Houston Center
04:25PM 30.1325 -93.3281 267° West 335 386 37,300 480 Climbing Houston Center
04:26PM 30.1278 -93.4375 267° West 338 389 37,800 300 Climbing Houston Center
04:27PM 30.1244 -93.5486 268° West 341 392 38,000 60 Climbing Houston Center
04:28PM 30.1197 -93.6633 267° West 352 405 38,000  Level Houston Center
04:29PM 30.1161 -93.7794 268° West 359 413 38,000  Level Houston Center
04:30PM 30.1122 -93.8953 268° West 361 415 38,000  Level Houston Center
04:31PM 30.1069 -94.0381 268° West 370 426 38,000 -60 Level Houston Center
04:32PM 30.1019 -94.1556 267° West 366 421 37,900  Descending Houston Center
04:33PM 30.0967 -94.2728 267° West 367 422 38,000  Climbing Houston Center
04:34PM 30.0928 -94.3897 268° West 366 421 38,000  Level Houston Center
04:35PM 30.0878 -94.5097 267° West 359 413 38,000  Level Houston Center
04:36PM 30.0831 -94.6233 267° West 357 411 38,000  Level Houston Center
04:37PM 30.0781 -94.7358 267° West 355 409 38,000  Level Houston Center
04:38PM 30.0719 -94.8703 267° West 354 407 38,000  Level Houston Center
04:39PM 30.0667 -94.9817 267° West 351 404 38,000  Level Houston Center
04:40PM 30.0614 -95.0942 267° West 354 407 38,000  Level Houston Center
04:41PM 30.0567 -95.2064 267° West 354 407 38,000  Level Houston Center
04:43PM 30.0506 -95.3192 266° West 355 409 38,000  Level Houston Center
04:44PM 30.0436 -95.4553 267° West 356 410 38,000  Level Houston Center
04:45PM 30.0375 -95.5675 266° West 354 407 38,000  Level Houston Center
04:46PM 30.0311 -95.6803 266° West 355 409 38,000  Level Houston Center
04:47PM 30.0250 -95.7922 266° West 352 405 38,000  Level Houston Center
04:48PM 30.0186 -95.9058 266° West 356 410 38,000 -60 Level Houston Center
04:49PM 30.0117 -96.0292 266° West 356 410 37,900 -300 Descending Houston Center
04:50PM 30.0064 -96.1378 267° West 345 397 37,400 -600 Descending Houston Center
04:51PM 30.0000 -96.2403 266° West 327 376 36,700 -720 Descending Houston Center
04:52PM 29.9936 -96.3606 267° West 318 366 36,000 -720 Descending Houston Center
04:53PM 29.9864 -96.4661 266° West 327 376 35,300 -660 Descending Houston Center
04:54PM 29.9811 -96.5708 267° West 330 380 34,700 -660 Descending Houston Center
04:55PM 29.9739 -96.6789 266° West 339 390 34,000 -660 Descending Houston Center
04:56PM 29.9678 -96.7856 266° West 337 388 33,400 -1,020 Descending Houston Center
04:57PM 29.9594 -96.9175 266° West 345 397 32,000 -1,800 Descending Houston Center
04:58PM 29.9525 -97.0258 266° West 343 395 29,800 -2,280 Descending Houston Center
04:59PM 29.9447 -97.1528 266° West 405 466 27,300 -2,520 Descending Houston Center
05:00PM 29.9367 -97.2844 266° West 418 481 24,600 -2,580 Descending Houston Center
05:01PM 29.9281 -97.4119 266° West 404 465 22,000 -2,640 Descending Houston Center
05:02PM 29.9186 -97.5553 266° West 386 444 19,200 -2,640 Descending Houston Center
05:03PM 29.9103 -97.6850 266° West 379 436 16,500 -2,460 Descending Houston Center
05:04PM 29.9011 -97.8203 266° West 367 422 13,800 -1,740 Descending Houston Center
05:05PM 29.9019 -97.9247 271° West 357 411 13,000 -420 Descending Houston Center
05:06PM 29.9111 -98.0578 275° West 366 421 13,000 -300 Level Houston Center
05:07PM 29.9192 -98.1603 275° West 350 403 12,400 -840 Descending Houston Center
05:08PM 29.9261 -98.2686 274° West 342 394 11,400 -1,080 Descending Houston Center
05:09PM 29.9322 -98.3672 274° West 291 335 10,200 -1,080 Descending Houston Center
05:10PM 29.9381 -98.4539 274° West 284 327 9,200 -960 Descending Houston Center
05:12PM 29.9439 -98.5453 274° West 270 311 8,200 -900 Descending Houston Center
05:13PM 29.9494 -98.6372 274° West 277 319 7,400 -840 Descending Houston Center
05:14PM 29.9550 -98.7297 274° West 272 313 6,500 -900 Descending Houston Center
05:15PM 29.9597 -98.8097 274° West 254 292 5,600 -900 Descending Houston Center
05:16PM 29.9644 -98.8903 274° West 238 274 4,700 -780 Descending Houston Center
05:17PM 29.9683 -98.9642 273° West 233 268 4,000 -720 Descending Houston Center